sensor_id;sensor_type;location;lat;lon;timestamp;P1;durP1;ratioP1;P2;durP2;ratioP2
66585;SDS011;53444;45.822;16.092;2022-08-25T00:01:45;9.98;;;7.20;;
66585;SDS011;53444;45.822;16.092;2022-08-25T00:04:14;9.57;;;7.33;;
66585;SDS011;53444;45.822;16.092;2022-08-25T00:06:43;10.07;;;7.10;;
66585;SDS011;53444;45.822;16.092;2022-08-25T00:09:11;11.38;;;7.45;;
66585;SDS011;53444;45.822;16.092;2022-08-25T00:11:39;13.35;;;7.68;;
66585;SDS011;53444;45.822;16.092;2022-08-25T00:14:07;10.50;;;7.28;;
66585;SDS011;53444;45.822;16.092;2022-08-25T00:16:37;8.40;;;6.83;;
66585;SDS011;53444;45.822;16.092;2022-08-25T00:19:05;8.45;;;7.50;;
66585;SDS011;53444;45.822;16.092;2022-08-25T00:21:34;10.68;;;7.38;;
66585;SDS011;53444;45.822;16.092;2022-08-25T00:24:02;8.60;;;6.50;;
66585;SDS011;53444;45.822;16.092;2022-08-25T00:26:29;11.27;;;6.57;;
66585;SDS011;53444;45.822;16.092;2022-08-25T00:28:56;8.17;;;6.33;;
66585;SDS011;53444;45.822;16.092;2022-08-25T00:31:24;7.93;;;6.85;;
66585;SDS011;53444;45.822;16.092;2022-08-25T00:33:51;8.18;;;6.47;;
66585;SDS011;53444;45.822;16.092;2022-08-25T00:36:20;11.23;;;6.82;;
66585;SDS011;53444;45.822;16.092;2022-08-25T00:38:47;9.35;;;6.70;;
66585;SDS011;53444;45.822;16.092;2022-08-25T00:41:17;11.63;;;6.80;;
66585;SDS011;53444;45.822;16.092;2022-08-25T00:43:46;9.93;;;6.80;;
66585;SDS011;53444;45.822;16.092;2022-08-25T00:46:16;10.52;;;6.93;;
66585;SDS011;53444;45.822;16.092;2022-08-25T00:48:46;10.13;;;7.10;;
66585;SDS011;53444;45.822;16.092;2022-08-25T00:51:17;12.00;;;6.97;;
66585;SDS011;53444;45.822;16.092;2022-08-25T00:53:50;10.17;;;7.00;;
66585;SDS011;53444;45.822;16.092;2022-08-25T00:56:17;8.63;;;6.30;;
66585;SDS011;53444;45.822;16.092;2022-08-25T00:58:44;8.68;;;7.25;;
66585;SDS011;53444;45.822;16.092;2022-08-25T01:01:11;7.55;;;6.50;;
66585;SDS011;53444;45.822;16.092;2022-08-25T01:03:38;9.43;;;7.00;;
66585;SDS011;53444;45.822;16.092;2022-08-25T01:06:04;10.13;;;6.97;;
66585;SDS011;53444;45.822;16.092;2022-08-25T01:08:34;9.30;;;7.07;;
66585;SDS011;53444;45.822;16.092;2022-08-25T01:11:05;9.43;;;7.80;;
66585;SDS011;53444;45.822;16.092;2022-08-25T01:13:34;9.48;;;7.47;;
66585;SDS011;53444;45.822;16.092;2022-08-25T01:16:04;10.23;;;7.43;;
66585;SDS011;53444;45.822;16.092;2022-08-25T01:18:41;9.23;;;7.03;;
66585;SDS011;53444;45.822;16.092;2022-08-25T01:21:11;10.65;;;7.88;;
66585;SDS011;53444;45.822;16.092;2022-08-25T01:23:37;9.48;;;7.55;;
66585;SDS011;53444;45.822;16.092;2022-08-25T01:26:07;13.30;;;7.47;;
66585;SDS011;53444;45.822;16.092;2022-08-25T01:28:36;13.20;;;8.50;;
66585;SDS011;53444;45.822;16.092;2022-08-25T01:31:24;12.20;;;9.00;;
66585;SDS011;53444;45.822;16.092;2022-08-25T01:33:51;12.23;;;8.40;;
66585;SDS011;53444;45.822;16.092;2022-08-25T01:36:20;11.75;;;8.38;;
66585;SDS011;53444;45.822;16.092;2022-08-25T01:38:48;12.68;;;8.63;;
66585;SDS011;53444;45.822;16.092;2022-08-25T01:41:15;14.63;;;8.95;;
66585;SDS011;53444;45.822;16.092;2022-08-25T01:43:46;12.30;;;8.57;;
66585;SDS011;53444;45.822;16.092;2022-08-25T01:46:13;13.30;;;9.18;;
66585;SDS011;53444;45.822;16.092;2022-08-25T01:48:39;11.15;;;8.73;;
66585;SDS011;53444;45.822;16.092;2022-08-25T01:51:06;11.63;;;8.68;;
66585;SDS011;53444;45.822;16.092;2022-08-25T01:53:34;12.15;;;9.25;;
66585;SDS011;53444;45.822;16.092;2022-08-25T01:56:06;11.20;;;8.77;;
66585;SDS011;53444;45.822;16.092;2022-08-25T01:58:36;15.52;;;8.57;;
66585;SDS011;53444;45.822;16.092;2022-08-25T02:01:04;12.07;;;8.35;;
66585;SDS011;53444;45.822;16.092;2022-08-25T02:03:35;13.70;;;9.32;;
66585;SDS011;53444;45.822;16.092;2022-08-25T02:06:03;10.90;;;8.80;;
66585;SDS011;53444;45.822;16.092;2022-08-25T02:08:31;11.73;;;8.43;;
66585;SDS011;53444;45.822;16.092;2022-08-25T02:10:59;11.70;;;8.82;;
66585;SDS011;53444;45.822;16.092;2022-08-25T02:13:26;11.88;;;8.35;;
66585;SDS011;53444;45.822;16.092;2022-08-25T02:15:53;11.63;;;8.55;;
66585;SDS011;53444;45.822;16.092;2022-08-25T02:18:22;13.07;;;8.55;;
66585;SDS011;53444;45.822;16.092;2022-08-25T02:20:49;11.40;;;8.60;;
66585;SDS011;53444;45.822;16.092;2022-08-25T02:23:16;8.93;;;7.50;;
66585;SDS011;53444;45.822;16.092;2022-08-25T02:25:43;12.68;;;7.88;;
66585;SDS011;53444;45.822;16.092;2022-08-25T02:28:12;13.35;;;7.88;;
66585;SDS011;53444;45.822;16.092;2022-08-25T02:30:39;11.77;;;8.40;;
66585;SDS011;53444;45.822;16.092;2022-08-25T02:33:07;11.50;;;8.60;;
66585;SDS011;53444;45.822;16.092;2022-08-25T02:35:35;16.48;;;8.45;;
66585;SDS011;53444;45.822;16.092;2022-08-25T02:38:02;13.43;;;8.68;;
66585;SDS011;53444;45.822;16.092;2022-08-25T02:40:30;11.90;;;8.10;;
66585;SDS011;53444;45.822;16.092;2022-08-25T02:42:56;12.63;;;8.63;;
66585;SDS011;53444;45.822;16.092;2022-08-25T02:45:24;13.27;;;8.53;;
66585;SDS011;53444;45.822;16.092;2022-08-25T02:47:51;10.73;;;7.70;;
66585;SDS011;53444;45.822;16.092;2022-08-25T02:50:18;13.63;;;8.82;;
66585;SDS011;53444;45.822;16.092;2022-08-25T02:52:45;13.82;;;8.85;;
66585;SDS011;53444;45.822;16.092;2022-08-25T02:55:14;13.38;;;8.40;;
66585;SDS011;53444;45.822;16.092;2022-08-25T02:57:42;12.13;;;7.80;;
66585;SDS011;53444;45.822;16.092;2022-08-25T03:00:09;11.68;;;8.45;;
66585;SDS011;53444;45.822;16.092;2022-08-25T03:02:39;11.55;;;8.38;;
66585;SDS011;53444;45.822;16.092;2022-08-25T03:05:07;11.00;;;8.70;;
66585;SDS011;53444;45.822;16.092;2022-08-25T03:07:35;11.95;;;8.30;;
66585;SDS011;53444;45.822;16.092;2022-08-25T03:10:06;11.90;;;8.30;;
66585;SDS011;53444;45.822;16.092;2022-08-25T03:12:40;13.88;;;8.57;;
66585;SDS011;53444;45.822;16.092;2022-08-25T03:15:08;12.63;;;8.57;;
66585;SDS011;53444;45.822;16.092;2022-08-25T03:17:35;12.80;;;8.05;;
66585;SDS011;53444;45.822;16.092;2022-08-25T03:20:04;12.32;;;8.35;;
66585;SDS011;53444;45.822;16.092;2022-08-25T03:22:31;12.70;;;8.70;;
66585;SDS011;53444;45.822;16.092;2022-08-25T03:24:58;11.65;;;8.50;;
66585;SDS011;53444;45.822;16.092;2022-08-25T03:27:39;12.32;;;8.43;;
66585;SDS011;53444;45.822;16.092;2022-08-25T03:30:06;11.57;;;8.07;;
66585;SDS011;53444;45.822;16.092;2022-08-25T03:32:34;15.80;;;8.50;;
66585;SDS011;53444;45.822;16.092;2022-08-25T03:35:01;12.33;;;7.93;;
66585;SDS011;53444;45.822;16.092;2022-08-25T03:37:30;12.55;;;8.65;;
66585;SDS011;53444;45.822;16.092;2022-08-25T03:39:57;13.18;;;8.80;;
66585;SDS011;53444;45.822;16.092;2022-08-25T03:42:24;13.35;;;9.00;;
66585;SDS011;53444;45.822;16.092;2022-08-25T03:44:50;15.55;;;10.00;;
66585;SDS011;53444;45.822;16.092;2022-08-25T03:47:17;13.33;;;10.13;;
66585;SDS011;53444;45.822;16.092;2022-08-25T03:49:44;15.52;;;10.13;;
66585;SDS011;53444;45.822;16.092;2022-08-25T03:52:12;14.82;;;10.75;;
66585;SDS011;53444;45.822;16.092;2022-08-25T03:54:38;18.65;;;11.40;;
66585;SDS011;53444;45.822;16.092;2022-08-25T03:57:05;17.60;;;10.88;;
66585;SDS011;53444;45.822;16.092;2022-08-25T03:59:33;17.10;;;10.53;;
66585;SDS011;53444;45.822;16.092;2022-08-25T04:02:02;18.63;;;10.90;;
66585;SDS011;53444;45.822;16.092;2022-08-25T04:04:29;17.92;;;11.23;;
66585;SDS011;53444;45.822;16.092;2022-08-25T04:06:56;18.02;;;10.75;;
66585;SDS011;53444;45.822;16.092;2022-08-25T04:09:25;15.25;;;10.65;;
66585;SDS011;53444;45.822;16.092;2022-08-25T04:11:51;16.53;;;11.00;;
66585;SDS011;53444;45.822;16.092;2022-08-25T04:14:19;19.60;;;11.10;;
66585;SDS011;53444;45.822;16.092;2022-08-25T04:16:47;18.83;;;11.35;;
66585;SDS011;53444;45.822;16.092;2022-08-25T04:19:14;18.00;;;10.80;;
66585;SDS011;53444;45.822;16.092;2022-08-25T04:21:41;19.25;;;11.25;;
66585;SDS011;53444;45.822;16.092;2022-08-25T04:24:08;18.97;;;10.90;;
66585;SDS011;53444;45.822;16.092;2022-08-25T04:26:39;18.98;;;10.88;;
66585;SDS011;53444;45.822;16.092;2022-08-25T04:29:07;20.73;;;11.60;;
66585;SDS011;53444;45.822;16.092;2022-08-25T04:31:35;17.13;;;10.80;;
66585;SDS011;53444;45.822;16.092;2022-08-25T04:34:04;22.17;;;11.20;;
66585;SDS011;53444;45.822;16.092;2022-08-25T04:36:32;17.77;;;10.90;;
66585;SDS011;53444;45.822;16.092;2022-08-25T04:38:59;19.00;;;11.20;;
66585;SDS011;53444;45.822;16.092;2022-08-25T04:41:26;21.30;;;11.50;;
66585;SDS011;53444;45.822;16.092;2022-08-25T04:43:57;21.42;;;11.10;;
66585;SDS011;53444;45.822;16.092;2022-08-25T04:46:26;21.10;;;11.73;;
66585;SDS011;53444;45.822;16.092;2022-08-25T04:48:55;21.67;;;11.07;;
66585;SDS011;53444;45.822;16.092;2022-08-25T04:51:23;19.27;;;10.55;;
66585;SDS011;53444;45.822;16.092;2022-08-25T04:53:52;19.92;;;11.50;;
66585;SDS011;53444;45.822;16.092;2022-08-25T04:56:20;21.58;;;11.68;;
66585;SDS011;53444;45.822;16.092;2022-08-25T04:58:49;19.58;;;11.55;;
66585;SDS011;53444;45.822;16.092;2022-08-25T05:01:18;21.23;;;11.30;;
66585;SDS011;53444;45.822;16.092;2022-08-25T05:03:47;18.95;;;11.40;;
66585;SDS011;53444;45.822;16.092;2022-08-25T05:06:18;20.30;;;10.95;;
66585;SDS011;53444;45.822;16.092;2022-08-25T05:08:45;21.75;;;11.25;;
66585;SDS011;53444;45.822;16.092;2022-08-25T05:11:12;21.80;;;10.93;;
66585;SDS011;53444;45.822;16.092;2022-08-25T05:13:41;20.10;;;11.63;;
66585;SDS011;53444;45.822;16.092;2022-08-25T05:16:09;20.38;;;10.82;;
66585;SDS011;53444;45.822;16.092;2022-08-25T05:18:37;20.80;;;12.05;;
66585;SDS011;53444;45.822;16.092;2022-08-25T05:21:05;20.88;;;11.75;;
66585;SDS011;53444;45.822;16.092;2022-08-25T05:23:33;19.08;;;11.93;;
66585;SDS011;53444;45.822;16.092;2022-08-25T05:26:01;22.23;;;11.33;;
66585;SDS011;53444;45.822;16.092;2022-08-25T05:28:33;22.25;;;11.60;;
66585;SDS011;53444;45.822;16.092;2022-08-25T05:31:00;20.60;;;11.50;;
66585;SDS011;53444;45.822;16.092;2022-08-25T05:33:28;24.95;;;12.32;;
66585;SDS011;53444;45.822;16.092;2022-08-25T05:36:02;20.60;;;11.88;;
66585;SDS011;53444;45.822;16.092;2022-08-25T05:38:29;21.03;;;12.47;;
66585;SDS011;53444;45.822;16.092;2022-08-25T05:40:56;22.52;;;11.88;;
66585;SDS011;53444;45.822;16.092;2022-08-25T05:43:23;22.50;;;12.15;;
66585;SDS011;53444;45.822;16.092;2022-08-25T05:45:52;23.75;;;11.95;;
66585;SDS011;53444;45.822;16.092;2022-08-25T05:48:19;20.98;;;12.13;;
66585;SDS011;53444;45.822;16.092;2022-08-25T05:50:49;21.60;;;11.83;;
66585;SDS011;53444;45.822;16.092;2022-08-25T05:53:18;24.85;;;11.88;;
66585;SDS011;53444;45.822;16.092;2022-08-25T05:55:44;24.02;;;12.23;;
66585;SDS011;53444;45.822;16.092;2022-08-25T05:58:11;22.83;;;11.90;;
66585;SDS011;53444;45.822;16.092;2022-08-25T06:00:38;20.90;;;12.10;;
66585;SDS011;53444;45.822;16.092;2022-08-25T06:03:05;23.73;;;12.00;;
66585;SDS011;53444;45.822;16.092;2022-08-25T06:05:31;25.58;;;11.63;;
66585;SDS011;53444;45.822;16.092;2022-08-25T06:07:58;20.90;;;12.40;;
66585;SDS011;53444;45.822;16.092;2022-08-25T06:10:26;24.85;;;12.90;;
66585;SDS011;53444;45.822;16.092;2022-08-25T06:12:53;22.93;;;12.70;;
66585;SDS011;53444;45.822;16.092;2022-08-25T06:15:21;23.42;;;12.43;;
66585;SDS011;53444;45.822;16.092;2022-08-25T06:17:49;24.55;;;12.50;;
66585;SDS011;53444;45.822;16.092;2022-08-25T06:20:17;23.55;;;11.70;;
66585;SDS011;53444;45.822;16.092;2022-08-25T06:22:45;21.88;;;11.70;;
66585;SDS011;53444;45.822;16.092;2022-08-25T06:25:13;20.47;;;11.53;;
66585;SDS011;53444;45.822;16.092;2022-08-25T06:27:43;21.67;;;12.02;;
66585;SDS011;53444;45.822;16.092;2022-08-25T06:30:13;21.58;;;12.52;;
66585;SDS011;53444;45.822;16.092;2022-08-25T06:32:43;23.05;;;12.55;;
66585;SDS011;53444;45.822;16.092;2022-08-25T06:35:13;25.15;;;12.52;;
66585;SDS011;53444;45.822;16.092;2022-08-25T06:37:41;28.13;;;12.80;;
66585;SDS011;53444;45.822;16.092;2022-08-25T06:40:09;19.17;;;12.25;;
66585;SDS011;53444;45.822;16.092;2022-08-25T06:42:36;22.88;;;12.38;;
66585;SDS011;53444;45.822;16.092;2022-08-25T06:45:05;21.67;;;12.05;;
66585;SDS011;53444;45.822;16.092;2022-08-25T06:47:33;17.90;;;11.68;;
66585;SDS011;53444;45.822;16.092;2022-08-25T06:50:00;18.33;;;11.73;;
66585;SDS011;53444;45.822;16.092;2022-08-25T06:52:28;18.25;;;11.90;;
66585;SDS011;53444;45.822;16.092;2022-08-25T06:54:55;17.92;;;12.48;;
66585;SDS011;53444;45.822;16.092;2022-08-25T06:57:22;20.83;;;12.40;;
66585;SDS011;53444;45.822;16.092;2022-08-25T06:59:49;19.90;;;11.60;;
66585;SDS011;53444;45.822;16.092;2022-08-25T07:02:17;18.57;;;11.43;;
66585;SDS011;53444;45.822;16.092;2022-08-25T07:04:44;25.75;;;12.27;;
66585;SDS011;53444;45.822;16.092;2022-08-25T07:07:11;20.65;;;11.90;;
66585;SDS011;53444;45.822;16.092;2022-08-25T07:09:38;19.00;;;11.38;;
66585;SDS011;53444;45.822;16.092;2022-08-25T07:12:05;20.05;;;11.93;;
66585;SDS011;53444;45.822;16.092;2022-08-25T07:14:33;22.37;;;12.07;;
66585;SDS011;53444;45.822;16.092;2022-08-25T07:17:00;21.05;;;12.10;;
66585;SDS011;53444;45.822;16.092;2022-08-25T07:19:29;20.60;;;11.70;;
66585;SDS011;53444;45.822;16.092;2022-08-25T07:21:55;21.05;;;12.10;;
66585;SDS011;53444;45.822;16.092;2022-08-25T07:24:22;23.52;;;12.43;;
66585;SDS011;53444;45.822;16.092;2022-08-25T07:26:49;23.10;;;12.77;;
66585;SDS011;53444;45.822;16.092;2022-08-25T07:29:16;23.15;;;12.45;;
66585;SDS011;53444;45.822;16.092;2022-08-25T07:31:45;19.63;;;11.95;;
66585;SDS011;53444;45.822;16.092;2022-08-25T07:34:12;22.65;;;12.25;;
66585;SDS011;53444;45.822;16.092;2022-08-25T07:36:57;21.08;;;12.85;;
66585;SDS011;53444;45.822;16.092;2022-08-25T07:39:25;23.30;;;12.70;;
66585;SDS011;53444;45.822;16.092;2022-08-25T07:41:52;22.58;;;12.10;;
66585;SDS011;53444;45.822;16.092;2022-08-25T07:44:19;21.48;;;12.10;;
66585;SDS011;53444;45.822;16.092;2022-08-25T07:46:47;18.65;;;12.38;;
66585;SDS011;53444;45.822;16.092;2022-08-25T07:49:14;17.13;;;11.40;;
66585;SDS011;53444;45.822;16.092;2022-08-25T07:51:41;22.37;;;12.40;;
66585;SDS011;53444;45.822;16.092;2022-08-25T07:54:09;18.58;;;11.90;;
66585;SDS011;53444;45.822;16.092;2022-08-25T07:56:36;17.85;;;12.02;;
66585;SDS011;53444;45.822;16.092;2022-08-25T07:59:05;24.42;;;12.52;;
66585;SDS011;53444;45.822;16.092;2022-08-25T08:01:32;17.83;;;11.75;;
66585;SDS011;53444;45.822;16.092;2022-08-25T08:03:59;20.30;;;11.97;;
66585;SDS011;53444;45.822;16.092;2022-08-25T08:06:26;21.25;;;13.05;;
66585;SDS011;53444;45.822;16.092;2022-08-25T08:08:53;20.10;;;12.73;;
66585;SDS011;53444;45.822;16.092;2022-08-25T08:11:22;19.67;;;12.75;;
66585;SDS011;53444;45.822;16.092;2022-08-25T08:13:51;22.00;;;12.77;;
66585;SDS011;53444;45.822;16.092;2022-08-25T08:16:20;21.47;;;11.97;;
66585;SDS011;53444;45.822;16.092;2022-08-25T08:18:48;19.52;;;13.00;;
66585;SDS011;53444;45.822;16.092;2022-08-25T08:21:16;15.55;;;11.32;;
66585;SDS011;53444;45.822;16.092;2022-08-25T08:23:44;19.55;;;12.02;;
66585;SDS011;53444;45.822;16.092;2022-08-25T08:26:11;20.08;;;13.15;;
66585;SDS011;53444;45.822;16.092;2022-08-25T08:28:39;16.00;;;12.20;;
66585;SDS011;53444;45.822;16.092;2022-08-25T08:31:06;18.80;;;13.02;;
66585;SDS011;53444;45.822;16.092;2022-08-25T08:33:33;18.70;;;12.65;;
66585;SDS011;53444;45.822;16.092;2022-08-25T08:36:01;19.73;;;12.07;;
66585;SDS011;53444;45.822;16.092;2022-08-25T08:38:30;23.40;;;12.48;;
66585;SDS011;53444;45.822;16.092;2022-08-25T08:40:59;29.83;;;18.80;;
66585;SDS011;53444;45.822;16.092;2022-08-25T08:43:51;17.77;;;12.90;;
66585;SDS011;53444;45.822;16.092;2022-08-25T08:46:22;20.95;;;14.55;;
66585;SDS011;53444;45.822;16.092;2022-08-25T08:48:54;17.80;;;11.98;;
66585;SDS011;53444;45.822;16.092;2022-08-25T08:51:28;17.15;;;12.80;;
66585;SDS011;53444;45.822;16.092;2022-08-25T08:53:58;15.33;;;11.70;;
66585;SDS011;53444;45.822;16.092;2022-08-25T08:56:32;16.00;;;11.13;;
66585;SDS011;53444;45.822;16.092;2022-08-25T08:59:06;13.50;;;10.70;;
66585;SDS011;53444;45.822;16.092;2022-08-25T09:01:40;21.33;;;11.88;;
66585;SDS011;53444;45.822;16.092;2022-08-25T09:04:12;16.95;;;11.70;;
66585;SDS011;53444;45.822;16.092;2022-08-25T09:06:45;16.83;;;11.57;;
66585;SDS011;53444;45.822;16.092;2022-08-25T09:09:14;16.17;;;10.95;;
66585;SDS011;53444;45.822;16.092;2022-08-25T09:11:49;13.00;;;10.52;;
66585;SDS011;53444;45.822;16.092;2022-08-25T09:14:28;15.35;;;10.55;;
66585;SDS011;53444;45.822;16.092;2022-08-25T09:17:04;17.67;;;11.55;;
66585;SDS011;53444;45.822;16.092;2022-08-25T09:19:39;15.77;;;11.10;;
66585;SDS011;53444;45.822;16.092;2022-08-25T09:22:22;15.23;;;10.90;;
66585;SDS011;53444;45.822;16.092;2022-08-25T09:25:00;14.50;;;10.80;;
66585;SDS011;53444;45.822;16.092;2022-08-25T09:27:36;16.60;;;10.85;;
66585;SDS011;53444;45.822;16.092;2022-08-25T09:30:12;13.75;;;11.20;;
66585;SDS011;53444;45.822;16.092;2022-08-25T09:32:42;12.17;;;10.87;;
66585;SDS011;53444;45.822;16.092;2022-08-25T09:35:13;18.25;;;11.40;;
66585;SDS011;53444;45.822;16.092;2022-08-25T09:37:53;17.88;;;11.63;;
66585;SDS011;53444;45.822;16.092;2022-08-25T09:40:21;12.68;;;10.57;;
66585;SDS011;53444;45.822;16.092;2022-08-25T09:42:51;15.00;;;11.48;;
66585;SDS011;53444;45.822;16.092;2022-08-25T09:45:31;16.00;;;10.93;;
66585;SDS011;53444;45.822;16.092;2022-08-25T09:48:00;14.02;;;11.02;;
66585;SDS011;53444;45.822;16.092;2022-08-25T09:50:29;15.40;;;11.35;;
66585;SDS011;53444;45.822;16.092;2022-08-25T09:53:09;14.38;;;11.10;;
66585;SDS011;53444;45.822;16.092;2022-08-25T09:55:38;13.32;;;10.55;;
66585;SDS011;53444;45.822;16.092;2022-08-25T09:58:16;14.70;;;10.30;;
66585;SDS011;53444;45.822;16.092;2022-08-25T10:00:46;12.27;;;10.55;;
66585;SDS011;53444;45.822;16.092;2022-08-25T10:03:26;13.90;;;10.00;;
66585;SDS011;53444;45.822;16.092;2022-08-25T10:05:58;15.60;;;9.68;;
66585;SDS011;53444;45.822;16.092;2022-08-25T10:08:31;12.77;;;10.18;;
66585;SDS011;53444;45.822;16.092;2022-08-25T10:11:00;11.00;;;9.30;;
66585;SDS011;53444;45.822;16.092;2022-08-25T10:13:33;11.05;;;9.52;;
66585;SDS011;53444;45.822;16.092;2022-08-25T10:16:05;15.00;;;9.63;;
66585;SDS011;53444;45.822;16.092;2022-08-25T10:18:34;12.50;;;9.02;;
66585;SDS011;53444;45.822;16.092;2022-08-25T10:21:02;10.70;;;9.50;;
66585;SDS011;53444;45.822;16.092;2022-08-25T10:23:32;11.37;;;9.33;;
66585;SDS011;53444;45.822;16.092;2022-08-25T10:26:02;11.52;;;8.85;;
66585;SDS011;53444;45.822;16.092;2022-08-25T10:28:36;11.35;;;8.38;;
66585;SDS011;53444;45.822;16.092;2022-08-25T10:31:17;10.77;;;8.60;;
66585;SDS011;53444;45.822;16.092;2022-08-25T10:33:53;11.45;;;9.63;;
66585;SDS011;53444;45.822;16.092;2022-08-25T10:36:30;10.90;;;8.33;;
66585;SDS011;53444;45.822;16.092;2022-08-25T10:39:07;8.82;;;7.93;;
66585;SDS011;53444;45.822;16.092;2022-08-25T10:41:46;8.73;;;7.82;;
66585;SDS011;53444;45.822;16.092;2022-08-25T10:44:20;9.25;;;7.72;;
66585;SDS011;53444;45.822;16.092;2022-08-25T10:47:29;9.00;;;7.85;;
66585;SDS011;53444;45.822;16.092;2022-08-25T10:50:08;9.27;;;7.57;;
66585;SDS011;53444;45.822;16.092;2022-08-25T10:52:43;8.93;;;7.75;;
66585;SDS011;53444;45.822;16.092;2022-08-25T10:55:21;9.88;;;7.80;;
66585;SDS011;53444;45.822;16.092;2022-08-25T10:57:57;8.02;;;7.18;;
66585;SDS011;53444;45.822;16.092;2022-08-25T11:00:30;9.95;;;7.63;;
66585;SDS011;53444;45.822;16.092;2022-08-25T11:03:10;8.63;;;7.73;;
66585;SDS011;53444;45.822;16.092;2022-08-25T11:05:55;9.38;;;7.28;;
66585;SDS011;53444;45.822;16.092;2022-08-25T11:08:30;10.93;;;7.75;;
66585;SDS011;53444;45.822;16.092;2022-08-25T11:11:01;8.27;;;6.97;;
66585;SDS011;53444;45.822;16.092;2022-08-25T11:13:36;9.52;;;7.13;;
66585;SDS011;53444;45.822;16.092;2022-08-25T11:16:08;7.50;;;6.70;;
66585;SDS011;53444;45.822;16.092;2022-08-25T11:18:43;8.48;;;7.10;;
66585;SDS011;53444;45.822;16.092;2022-08-25T11:21:16;8.18;;;7.38;;
66585;SDS011;53444;45.822;16.092;2022-08-25T11:23:49;7.97;;;7.18;;
66585;SDS011;53444;45.822;16.092;2022-08-25T11:26:23;9.50;;;7.88;;
66585;SDS011;53444;45.822;16.092;2022-08-25T11:28:56;8.23;;;7.43;;
66585;SDS011;53444;45.822;16.092;2022-08-25T11:31:28;8.65;;;7.72;;
66585;SDS011;53444;45.822;16.092;2022-08-25T11:33:57;9.50;;;8.45;;
66585;SDS011;53444;45.822;16.092;2022-08-25T11:36:25;9.02;;;7.70;;
66585;SDS011;53444;45.822;16.092;2022-08-25T11:39:03;7.82;;;6.47;;
66585;SDS011;53444;45.822;16.092;2022-08-25T11:41:39;8.07;;;7.27;;
66585;SDS011;53444;45.822;16.092;2022-08-25T11:44:21;10.15;;;7.70;;
66585;SDS011;53444;45.822;16.092;2022-08-25T11:47:07;8.18;;;7.32;;
66585;SDS011;53444;45.822;16.092;2022-08-25T11:49:50;9.63;;;7.43;;
66585;SDS011;53444;45.822;16.092;2022-08-25T11:55:19;8.23;;;7.43;;
66585;SDS011;53444;45.822;16.092;2022-08-25T11:57:51;9.82;;;7.68;;
66585;SDS011;53444;45.822;16.092;2022-08-25T12:00:38;11.15;;;8.25;;
66585;SDS011;53444;45.822;16.092;2022-08-25T12:06:16;10.25;;;7.82;;
66585;SDS011;53444;45.822;16.092;2022-08-25T12:08:52;8.00;;;7.20;;
66585;SDS011;53444;45.822;16.092;2022-08-25T12:11:50;12.25;;;7.50;;
66585;SDS011;53444;45.822;16.092;2022-08-25T12:17:16;8.68;;;7.20;;
66585;SDS011;53444;45.822;16.092;2022-08-25T12:20:02;13.45;;;7.78;;
66585;SDS011;53444;45.822;16.092;2022-08-25T12:22:50;11.17;;;7.20;;
66585;SDS011;53444;45.822;16.092;2022-08-25T12:25:34;8.35;;;7.50;;
66585;SDS011;53444;45.822;16.092;2022-08-25T12:31:02;13.55;;;7.13;;
66585;SDS011;53444;45.822;16.092;2022-08-25T12:33:37;9.80;;;7.90;;
66585;SDS011;53444;45.822;16.092;2022-08-25T12:36:23;9.67;;;7.87;;
66585;SDS011;53444;45.822;16.092;2022-08-25T12:38:53;9.52;;;8.52;;
66585;SDS011;53444;45.822;16.092;2022-08-25T12:41:32;9.43;;;8.40;;
66585;SDS011;53444;45.822;16.092;2022-08-25T12:44:07;11.95;;;8.52;;
66585;SDS011;53444;45.822;16.092;2022-08-25T12:46:42;9.73;;;7.93;;
66585;SDS011;53444;45.822;16.092;2022-08-25T12:49:28;10.00;;;7.63;;
66585;SDS011;53444;45.822;16.092;2022-08-25T12:51:57;8.80;;;7.97;;
66585;SDS011;53444;45.822;16.092;2022-08-25T12:54:35;9.68;;;8.48;;
66585;SDS011;53444;45.822;16.092;2022-08-25T12:57:13;10.00;;;7.50;;
66585;SDS011;53444;45.822;16.092;2022-08-25T12:59:52;9.48;;;8.60;;
66585;SDS011;53444;45.822;16.092;2022-08-25T13:02:36;8.53;;;7.70;;
66585;SDS011;53444;45.822;16.092;2022-08-25T13:05:32;8.05;;;7.25;;
66585;SDS011;53444;45.822;16.092;2022-08-25T13:08:29;8.70;;;7.80;;
66585;SDS011;53444;45.822;16.092;2022-08-25T13:11:09;9.68;;;8.25;;
66585;SDS011;53444;45.822;16.092;2022-08-25T13:13:44;9.60;;;7.72;;
66585;SDS011;53444;45.822;16.092;2022-08-25T13:16:17;8.97;;;7.87;;
66585;SDS011;53444;45.822;16.092;2022-08-25T13:18:45;10.50;;;8.07;;
66585;SDS011;53444;45.822;16.092;2022-08-25T13:21:14;10.18;;;7.55;;
66585;SDS011;53444;45.822;16.092;2022-08-25T13:23:43;9.05;;;8.05;;
66585;SDS011;53444;45.822;16.092;2022-08-25T13:26:14;9.50;;;8.50;;
66585;SDS011;53444;45.822;16.092;2022-08-25T13:28:49;8.83;;;7.93;;
66585;SDS011;53444;45.822;16.092;2022-08-25T13:31:19;12.18;;;8.60;;
66585;SDS011;53444;45.822;16.092;2022-08-25T13:33:50;9.57;;;8.32;;
66585;SDS011;53444;45.822;16.092;2022-08-25T13:36:18;12.40;;;8.70;;
66585;SDS011;53444;45.822;16.092;2022-08-25T13:39:09;11.68;;;8.57;;
66585;SDS011;53444;45.822;16.092;2022-08-25T13:41:39;9.60;;;8.33;;
66585;SDS011;53444;45.822;16.092;2022-08-25T13:44:10;8.85;;;8.05;;
66585;SDS011;53444;45.822;16.092;2022-08-25T13:46:37;10.85;;;8.40;;
66585;SDS011;53444;45.822;16.092;2022-08-25T13:49:04;9.38;;;8.43;;
66585;SDS011;53444;45.822;16.092;2022-08-25T13:51:33;9.25;;;8.35;;
66585;SDS011;53444;45.822;16.092;2022-08-25T13:54:02;9.07;;;7.90;;
66585;SDS011;53444;45.822;16.092;2022-08-25T13:56:31;9.75;;;8.30;;
66585;SDS011;53444;45.822;16.092;2022-08-25T13:59:01;11.38;;;8.48;;
66585;SDS011;53444;45.822;16.092;2022-08-25T14:01:30;9.45;;;8.20;;
66585;SDS011;53444;45.822;16.092;2022-08-25T14:07:11;8.87;;;7.97;;
66585;SDS011;53444;45.822;16.092;2022-08-25T14:09:55;10.13;;;7.40;;
66585;SDS011;53444;45.822;16.092;2022-08-25T14:12:28;8.68;;;7.60;;
66585;SDS011;53444;45.822;16.092;2022-08-25T14:15:05;9.82;;;8.27;;
66585;SDS011;53444;45.822;16.092;2022-08-25T14:17:35;11.63;;;7.70;;
66585;SDS011;53444;45.822;16.092;2022-08-25T14:20:04;9.93;;;7.43;;
66585;SDS011;53444;45.822;16.092;2022-08-25T14:22:41;8.70;;;7.90;;
66585;SDS011;53444;45.822;16.092;2022-08-25T14:25:08;10.05;;;8.15;;
66585;SDS011;53444;45.822;16.092;2022-08-25T14:27:35;10.20;;;7.40;;
66585;SDS011;53444;45.822;16.092;2022-08-25T14:30:02;9.38;;;7.70;;
66585;SDS011;53444;45.822;16.092;2022-08-25T14:32:30;9.00;;;7.47;;
66585;SDS011;53444;45.822;16.092;2022-08-25T14:34:57;11.40;;;7.30;;
66585;SDS011;53444;45.822;16.092;2022-08-25T14:37:24;8.93;;;8.02;;
66585;SDS011;53444;45.822;16.092;2022-08-25T14:39:51;11.43;;;7.38;;
66585;SDS011;53444;45.822;16.092;2022-08-25T14:42:18;8.70;;;7.75;;
66585;SDS011;53444;45.822;16.092;2022-08-25T14:44:46;11.07;;;7.17;;
66585;SDS011;53444;45.822;16.092;2022-08-25T14:47:16;10.38;;;7.35;;
66585;SDS011;53444;45.822;16.092;2022-08-25T14:49:44;8.90;;;8.00;;
66585;SDS011;53444;45.822;16.092;2022-08-25T14:52:14;8.52;;;7.75;;
66585;SDS011;53444;45.822;16.092;2022-08-25T14:54:44;9.18;;;8.25;;